createdAt,value
2022-08-17T00:01:51.926Z,12.15
2022-08-17T00:04:24.515Z,12.13
2022-08-17T00:06:53.778Z,11.27
2022-08-17T00:09:23.402Z,15.00
2022-08-17T00:12:41.414Z,11.88
2022-08-17T00:14:42.565Z,13.70
2022-08-17T00:17:11.851Z,16.83
2022-08-17T00:19:42.587Z,13.90
2022-08-17T00:22:32.215Z,14.10
2022-08-17T00:25:01.349Z,14.13
2022-08-17T00:27:30.850Z,12.52
2022-08-17T00:30:00.205Z,13.98
2022-08-17T00:33:15.124Z,14.48
2022-08-17T00:35:23.712Z,12.80
2022-08-17T00:37:53.451Z,12.95
2022-08-17T00:42:54.480Z,14.32
2022-08-17T00:45:24.043Z,14.30
2022-08-17T00:47:53.335Z,13.18
2022-08-17T00:50:24.179Z,12.63
2022-08-17T00:52:58.770Z,14.80
2022-08-17T00:55:28.764Z,13.65
2022-08-17T00:58:01.223Z,14.48
2022-08-17T01:00:35.673Z,14.18
2022-08-17T01:03:11.897Z,13.30
2022-08-17T01:05:43.968Z,13.65
2022-08-17T01:08:19.666Z,14.65
2022-08-17T01:10:58.159Z,13.68
2022-08-17T01:13:40.642Z,13.07
2022-08-17T01:16:17.444Z,14.65
2022-08-17T01:18:49.300Z,13.05
2022-08-17T01:21:28.710Z,16.00
2022-08-17T01:24:00.588Z,12.15
2022-08-17T01:26:32.881Z,13.63
2022-08-17T01:29:02.714Z,14.93
2022-08-17T01:31:37.145Z,13.07
2022-08-17T01:34:09.913Z,13.77
2022-08-17T01:36:41.071Z,14.70
2022-08-17T01:39:19.164Z,14.80
2022-08-17T01:41:49.744Z,12.98
2022-08-17T01:44:19.411Z,14.70
2022-08-17T01:46:48.786Z,16.90
2022-08-17T01:49:18.064Z,15.07
2022-08-17T01:51:47.846Z,16.27
2022-08-17T01:54:20.935Z,15.40
2022-08-17T01:56:53.073Z,15.80
2022-08-17T01:59:22.704Z,14.50
2022-08-17T02:01:52.757Z,14.13
2022-08-17T02:04:22.300Z,12.27
2022-08-17T02:06:54.455Z,15.20
2022-08-17T02:09:29.549Z,13.63
2022-08-17T02:12:37.596Z,14.27
2022-08-17T02:14:53.500Z,13.05
2022-08-17T02:17:22.816Z,15.15
2022-08-17T02:19:52.110Z,14.25
2022-08-17T02:22:21.889Z,13.60
2022-08-17T02:25:00.521Z,13.05
2022-08-17T02:27:31.847Z,13.70
2022-08-17T02:30:01.228Z,15.05
2022-08-17T02:32:30.481Z,17.73
2022-08-17T02:35:00.926Z,15.48
2022-08-17T02:37:30.973Z,13.63
2022-08-17T02:40:02.045Z,14.23
2022-08-17T02:42:33.927Z,14.18
2022-08-17T02:45:03.527Z,14.40
2022-08-17T02:47:33.072Z,13.35
2022-08-17T02:50:02.490Z,12.88
2022-08-17T02:52:42.717Z,14.80
2022-08-17T02:55:17.042Z,14.02
2022-08-17T02:57:47.153Z,12.57
2022-08-17T03:00:21.238Z,18.55
2022-08-17T03:02:51.883Z,13.68
2022-08-17T03:05:23.333Z,14.13
2022-08-17T03:07:54.860Z,17.88
2022-08-17T03:10:26.631Z,13.30
2022-08-17T03:12:56.848Z,15.60
2022-08-17T03:17:57.294Z,15.57
2022-08-17T03:23:02.747Z,12.68
2022-08-17T03:25:35.940Z,13.65
2022-08-17T03:28:07.238Z,14.48
2022-08-17T03:30:37.493Z,15.80
2022-08-17T03:33:11.251Z,15.23
2022-08-17T03:35:42.690Z,15.75
2022-08-17T03:38:15.171Z,13.93
2022-08-17T03:40:58.058Z,17.48
2022-08-17T03:43:30.761Z,13.50
2022-08-17T03:46:34.398Z,12.95
2022-08-17T03:49:23.508Z,15.68
2022-08-17T03:52:10.610Z,15.32
2022-08-17T03:54:57.501Z,12.20
2022-08-17T03:57:29.160Z,12.43
2022-08-17T03:59:58.795Z,14.48
2022-08-17T04:02:31.470Z,12.35
2022-08-17T04:05:01.653Z,13.20
2022-08-17T04:07:32.777Z,13.02
2022-08-17T04:10:02.491Z,16.52
2022-08-17T04:12:46.768Z,13.00
2022-08-17T04:15:18.246Z,14.27
2022-08-17T04:17:48.265Z,11.32
2022-08-17T04:20:20.356Z,13.23
2022-08-17T04:23:02.143Z,15.35
2022-08-17T04:25:34.251Z,13.98
2022-08-17T04:28:07.683Z,15.48
2022-08-17T04:30:46.888Z,13.88
2022-08-17T04:33:18.468Z,14.00
2022-08-17T04:35:50.431Z,11.93
2022-08-17T04:38:21.927Z,15.15
2022-08-17T04:41:09.130Z,17.40
2022-08-17T04:43:42.186Z,10.52
2022-08-17T04:46:14.579Z,16.58
2022-08-17T04:48:46.243Z,14.43
2022-08-17T04:51:18.166Z,12.63
2022-08-17T04:53:54.395Z,11.27
2022-08-17T04:56:25.911Z,15.25
2022-08-17T04:58:59.039Z,21.30
2022-08-17T05:01:31.211Z,16.75
2022-08-17T05:04:33.518Z,16.70
2022-08-17T05:06:55.738Z,12.02
2022-08-17T05:09:25.334Z,14.98
2022-08-17T05:11:55.265Z,14.27
2022-08-17T05:14:33.802Z,15.93
2022-08-17T05:17:07.363Z,13.10
2022-08-17T05:19:41.195Z,14.75
2022-08-17T05:22:10.545Z,13.48
2022-08-17T05:24:43.495Z,15.75
2022-08-17T05:27:23.534Z,12.95
2022-08-17T05:32:37.921Z,12.75
2022-08-17T05:35:10.108Z,13.50
2022-08-17T05:37:39.701Z,14.27
2022-08-17T05:40:10.735Z,14.27
2022-08-17T05:42:40.304Z,16.92
2022-08-17T05:45:12.230Z,20.65
2022-08-17T05:47:42.578Z,12.07
2022-08-17T05:50:26.051Z,16.20
2022-08-17T05:53:04.423Z,15.70
2022-08-17T05:55:41.284Z,17.50
2022-08-17T05:58:21.453Z,14.02
2022-08-17T06:01:04.191Z,13.70
2022-08-17T06:03:45.627Z,16.55
2022-08-17T06:06:31.281Z,14.18
2022-08-17T06:09:12.943Z,14.80
2022-08-17T06:11:53.454Z,14.45
2022-08-17T06:14:51.177Z,12.00
2022-08-17T06:17:23.905Z,12.52
2022-08-17T06:19:59.719Z,12.27
2022-08-17T06:22:34.541Z,15.00
2022-08-17T06:25:10.185Z,11.55
2022-08-17T06:27:45.039Z,11.65
2022-08-17T06:30:17.368Z,12.35
2022-08-17T06:32:51.105Z,10.65
2022-08-17T06:35:32.041Z,10.13
2022-08-17T06:38:37.091Z,13.63
2022-08-17T06:41:17.042Z,14.40
2022-08-17T06:44:12.026Z,12.88
2022-08-17T06:47:09.031Z,12.40
2022-08-17T06:49:54.647Z,14.55
2022-08-17T06:52:46.860Z,12.65
2022-08-17T06:55:26.292Z,11.40
2022-08-17T06:58:01.424Z,8.88
2022-08-17T07:00:42.917Z,13.88
2022-08-17T07:03:21.990Z,10.70
2022-08-17T07:05:57.978Z,11.77
2022-08-17T07:08:35.052Z,9.65
2022-08-17T07:11:06.883Z,9.20
2022-08-17T07:13:51.396Z,11.75
2022-08-17T07:16:25.502Z,6.90
2022-08-17T07:18:57.292Z,14.18
2022-08-17T07:21:43.018Z,8.95
2022-08-17T07:24:26.365Z,7.45
2022-08-17T07:27:14.868Z,8.68
2022-08-17T07:29:49.483Z,9.65
2022-08-17T07:32:23.359Z,8.27
2022-08-17T07:35:15.356Z,7.47
2022-08-17T07:37:53.188Z,7.75
2022-08-17T07:40:30.866Z,9.63
2022-08-17T07:43:15.605Z,10.98
2022-08-17T07:46:21.403Z,5.95
2022-08-17T07:48:53.063Z,8.60
2022-08-17T07:51:26.590Z,6.80
2022-08-17T07:54:13.671Z,7.30
2022-08-17T07:56:47.965Z,6.18
2022-08-17T07:59:23.729Z,10.30
2022-08-17T08:02:31.896Z,6.13
2022-08-17T08:05:10.091Z,6.32
2022-08-17T08:07:45.166Z,6.32
2022-08-17T08:10:27.924Z,8.10
2022-08-17T08:13:14.647Z,6.35
2022-08-17T08:15:54.356Z,5.60
2022-08-17T08:18:38.748Z,13.38
2022-08-17T08:21:24.604Z,6.80
2022-08-17T08:24:00.593Z,8.35
2022-08-17T08:26:41.160Z,5.53
2022-08-17T08:29:22.536Z,5.60
2022-08-17T08:32:03.516Z,7.28
2022-08-17T08:34:53.348Z,6.50
2022-08-17T08:37:42.453Z,6.97
2022-08-17T08:40:26.997Z,7.00
2022-08-17T08:43:08.400Z,7.82
2022-08-17T08:45:47.174Z,6.97
2022-08-17T08:48:55.752Z,7.22
2022-08-17T08:51:27.969Z,7.68
2022-08-17T08:54:05.050Z,9.20
2022-08-17T08:56:59.177Z,8.40
2022-08-17T08:59:42.339Z,7.63
2022-08-17T09:02:25.206Z,7.75
2022-08-17T09:05:20.363Z,16.52
2022-08-17T09:08:02.010Z,9.05
2022-08-17T09:10:36.011Z,7.38
2022-08-17T09:13:16.936Z,6.20
2022-08-17T09:15:53.113Z,8.52
2022-08-17T09:19:02.653Z,8.40
2022-08-17T09:21:22.550Z,6.03
2022-08-17T09:23:59.972Z,9.63
2022-08-17T09:26:35.560Z,7.45
2022-08-17T09:29:10.040Z,7.30
2022-08-17T09:31:49.378Z,7.55
2022-08-17T09:34:29.625Z,7.10
2022-08-17T09:37:17.264Z,7.20
2022-08-17T09:39:55.970Z,7.15
2022-08-17T09:42:32.769Z,7.03
2022-08-17T09:45:15.919Z,7.50
2022-08-17T09:47:53.352Z,9.10
2022-08-17T09:51:03.388Z,7.18
2022-08-17T09:53:16.793Z,10.52
2022-08-17T09:56:15.855Z,6.18
2022-08-17T09:59:00.486Z,8.33
2022-08-17T10:01:39.884Z,8.50
2022-08-17T10:04:34.025Z,8.45
2022-08-17T10:07:11.629Z,7.47
2022-08-17T10:09:56.599Z,7.72
2022-08-17T10:12:35.321Z,7.20
2022-08-17T10:15:22.406Z,7.57
2022-08-17T10:18:30.509Z,7.82
2022-08-17T10:21:25.202Z,7.32
2022-08-17T10:24:19.081Z,7.93
2022-08-17T10:26:57.240Z,8.55
2022-08-17T10:29:48.802Z,6.47
2022-08-17T10:32:28.423Z,10.73
2022-08-17T10:35:20.865Z,6.93
2022-08-17T10:38:19.588Z,9.82
2022-08-17T10:40:59.916Z,7.72
2022-08-17T10:43:42.151Z,13.43
2022-08-17T10:46:33.687Z,11.00
2022-08-17T10:49:26.865Z,8.43
2022-08-17T10:51:59.974Z,6.95
2022-08-17T10:54:46.636Z,7.45
2022-08-17T10:57:47.160Z,12.10
2022-08-17T11:01:02.261Z,7.78
2022-08-17T11:03:32.965Z,7.07
2022-08-17T11:06:16.443Z,12.18
2022-08-17T11:09:11.679Z,6.90
2022-08-17T11:12:13.163Z,8.30
2022-08-17T11:15:00.573Z,8.32
2022-08-17T11:17:52.109Z,10.43
2022-08-17T11:20:55.783Z,7.22
2022-08-17T11:23:54.723Z,6.20
2022-08-17T11:26:29.704Z,7.43
2022-08-17T11:29:05.261Z,9.82
2022-08-17T11:31:40.454Z,8.18
2022-08-17T11:34:21.244Z,6.63
2022-08-17T11:37:33.066Z,7.40
2022-08-17T11:40:25.872Z,9.10
2022-08-17T11:43:32.050Z,6.93
2022-08-17T11:46:16.894Z,6.55
2022-08-17T11:49:16.844Z,8.55
2022-08-17T11:52:10.180Z,5.97
2022-08-17T11:54:46.206Z,9.30
2022-08-17T11:57:54.553Z,5.97
2022-08-17T12:00:59.173Z,7.43
2022-08-17T12:06:41.325Z,7.18
2022-08-17T12:09:17.997Z,5.57
2022-08-17T12:12:11.413Z,8.75
2022-08-17T12:17:43.038Z,6.68
2022-08-17T12:20:21.497Z,7.78
2022-08-17T12:23:01.492Z,5.63
2022-08-17T12:25:38.659Z,6.25
2022-08-17T12:28:23.138Z,8.52
2022-08-17T12:30:54.765Z,6.68
2022-08-17T12:33:28.889Z,6.43
2022-08-17T12:36:02.845Z,4.95
2022-08-17T12:38:39.376Z,7.10
2022-08-17T12:41:29.228Z,5.72
2022-08-17T12:44:01.740Z,5.85
2022-08-17T12:46:34.879Z,7.47
2022-08-17T12:49:16.040Z,10.25
2022-08-17T12:51:47.981Z,6.95
2022-08-17T12:54:35.149Z,9.93
2022-08-17T12:57:12.630Z,6.40
2022-08-17T12:59:50.030Z,5.80
2022-08-17T13:02:42.672Z,5.85
2022-08-17T13:05:23.230Z,6.25
2022-08-17T13:07:53.202Z,9.45
2022-08-17T13:10:32.474Z,9.75
2022-08-17T13:13:05.936Z,7.45
2022-08-17T13:15:44.439Z,9.23
2022-08-17T13:21:00.337Z,9.93
2022-08-17T13:23:31.421Z,10.18
2022-08-17T13:26:07.713Z,6.47
2022-08-17T13:28:38.898Z,8.43
2022-08-17T13:31:33.440Z,8.23
2022-08-17T13:34:19.287Z,6.90
2022-08-17T13:36:50.787Z,6.20
2022-08-17T13:39:24.284Z,9.35
2022-08-17T13:41:56.600Z,7.88
2022-08-17T13:44:33.057Z,7.13
2022-08-17T13:47:03.712Z,8.07
2022-08-17T13:49:41.889Z,10.65
2022-08-17T13:52:35.927Z,10.27
2022-08-17T13:55:17.157Z,11.00
2022-08-17T13:57:49.767Z,8.10
2022-08-17T14:00:37.921Z,9.48
2022-08-17T14:03:07.539Z,10.27
2022-08-17T14:08:08.260Z,7.75
2022-08-17T14:10:37.659Z,9.23
2022-08-17T14:13:09.500Z,9.50
2022-08-17T14:15:53.988Z,10.20
2022-08-17T14:18:31.159Z,10.38
2022-08-17T14:21:17.417Z,11.32
2022-08-17T14:23:54.226Z,8.02
2022-08-17T14:26:24.535Z,8.60
2022-08-17T14:31:27.524Z,14.45
2022-08-17T14:33:58.972Z,10.15
2022-08-17T14:36:29.086Z,11.32
2022-08-17T14:38:58.453Z,12.55
2022-08-17T14:41:27.830Z,11.25
2022-08-17T14:43:58.905Z,16.60
2022-08-17T14:46:28.856Z,14.85
2022-08-17T14:51:31.316Z,13.60
2022-08-17T14:54:00.934Z,11.90
2022-08-17T14:56:31.789Z,13.80
2022-08-17T14:59:09.037Z,20.15
2022-08-17T15:01:38.423Z,14.40
2022-08-17T15:06:38.995Z,13.40
2022-08-17T15:09:08.625Z,14.68
2022-08-17T15:11:39.586Z,13.70
2022-08-17T15:14:10.713Z,14.27
2022-08-17T15:16:40.610Z,13.52
2022-08-17T15:21:39.946Z,12.65
2022-08-17T15:24:10.229Z,12.73
2022-08-17T15:26:39.557Z,11.98
2022-08-17T15:29:10.863Z,15.00
2022-08-17T15:31:40.437Z,12.00
2022-08-17T15:34:10.056Z,12.98
2022-08-17T15:36:41.405Z,13.27
2022-08-17T15:39:19.686Z,13.93
2022-08-17T15:41:58.760Z,13.05
2022-08-17T15:44:34.784Z,16.40
2022-08-17T15:47:04.655Z,16.10
2022-08-17T15:49:34.215Z,16.92
2022-08-17T15:52:15.942Z,13.98
2022-08-17T15:54:50.107Z,12.98
2022-08-17T15:57:20.371Z,25.30
2022-08-17T15:59:53.965Z,15.73
2022-08-17T16:03:13.970Z,19.65
2022-08-17T16:05:18.949Z,12.70
2022-08-17T16:07:49.666Z,15.68
2022-08-17T16:10:19.953Z,16.00
2022-08-17T16:12:50.668Z,17.30
2022-08-17T16:15:21.774Z,17.80
2022-08-17T16:17:51.469Z,18.30
2022-08-17T16:20:21.238Z,16.60
2022-08-17T16:22:51.944Z,14.32
2022-08-17T16:25:52.089Z,23.08
2022-08-17T16:28:15.661Z,13.80
2022-08-17T16:30:46.463Z,13.95
2022-08-17T16:33:18.815Z,15.65
2022-08-17T16:35:48.223Z,13.93
2022-08-17T16:40:46.879Z,11.65
2022-08-17T16:43:16.663Z,12.50
2022-08-17T16:45:51.965Z,10.48
2022-08-17T16:48:21.495Z,11.57
2022-08-17T16:51:03.632Z,11.02
2022-08-17T16:53:33.973Z,10.60
2022-08-17T16:56:05.222Z,13.18
2022-08-17T16:58:34.510Z,13.35
2022-08-17T17:01:05.534Z,12.35
2022-08-17T17:03:35.850Z,17.08
2022-08-17T17:06:15.643Z,13.13
2022-08-17T17:08:51.677Z,11.98
2022-08-17T17:11:27.322Z,13.45
2022-08-17T17:14:01.629Z,12.43
2022-08-17T17:16:45.711Z,16.58
2022-08-17T17:19:27.893Z,14.45
2022-08-17T17:22:12.197Z,11.15
2022-08-17T17:24:50.276Z,13.32
2022-08-17T17:27:30.687Z,12.65
2022-08-17T17:30:09.820Z,14.55
2022-08-17T17:32:45.875Z,11.53
2022-08-17T17:35:21.679Z,11.93
2022-08-17T17:37:53.558Z,12.13
2022-08-17T17:40:26.663Z,16.13
2022-08-17T17:43:14.251Z,12.25
2022-08-17T17:45:58.848Z,15.05
2022-08-17T17:48:49.496Z,16.00
2022-08-17T17:51:45.573Z,14.55
2022-08-17T17:54:32.400Z,15.35
2022-08-17T17:57:11.585Z,15.27
2022-08-17T17:59:51.323Z,17.33
2022-08-17T18:02:51.948Z,16.40
2022-08-17T18:05:58.558Z,17.20
2022-08-17T18:08:49.226Z,21.40
2022-08-17T18:11:35.207Z,16.73
2022-08-17T18:14:17.351Z,17.10
2022-08-17T18:16:54.749Z,16.55
2022-08-17T18:19:26.713Z,20.02
2022-08-17T18:22:07.588Z,17.85
2022-08-17T18:24:44.779Z,20.70
2022-08-17T18:27:29.834Z,18.67
2022-08-17T18:30:05.870Z,23.80
2022-08-17T18:32:40.815Z,17.98
2022-08-17T18:35:35.083Z,19.80
2022-08-17T18:38:24.127Z,21.27
2022-08-17T18:41:01.914Z,18.60
2022-08-17T18:43:44.147Z,20.17
2022-08-17T18:46:33.133Z,19.25
2022-08-17T18:49:03.969Z,19.55
2022-08-17T18:51:42.210Z,19.50
2022-08-17T18:54:21.358Z,24.55
2022-08-17T18:56:54.897Z,24.25
2022-08-17T18:59:32.390Z,25.17
2022-08-17T19:02:24.219Z,26.65
2022-08-17T19:05:08.551Z,26.38
2022-08-17T19:07:40.699Z,29.58
2022-08-17T19:10:22.856Z,24.80
2022-08-17T19:13:00.899Z,30.67
2022-08-17T19:15:36.731Z,26.45
2022-08-17T19:18:15.691Z,26.75
2022-08-17T19:20:51.992Z,25.77
2022-08-17T19:23:28.865Z,27.08
2022-08-17T19:26:03.978Z,27.67
2022-08-17T19:28:53.447Z,27.20
2022-08-17T19:31:26.095Z,25.60
2022-08-17T19:33:57.372Z,25.88
2022-08-17T19:36:40.259Z,25.70
2022-08-17T19:39:19.170Z,25.88
2022-08-17T19:41:59.164Z,28.52
2022-08-17T19:44:49.652Z,28.75
2022-08-17T19:47:50.978Z,25.80
2022-08-17T19:50:22.402Z,27.02
2022-08-17T19:52:56.713Z,26.33
2022-08-17T19:55:32.987Z,24.52
2022-08-17T19:58:17.826Z,24.42
2022-08-17T20:00:52.515Z,27.70
2022-08-17T20:03:25.867Z,36.78
2022-08-17T20:06:12.617Z,26.20
2022-08-17T20:08:49.927Z,26.88
2022-08-17T20:11:25.313Z,25.92
2022-08-17T20:14:04.647Z,27.50
2022-08-17T20:16:35.281Z,27.65
2022-08-17T20:19:09.134Z,28.35
2022-08-17T20:21:44.386Z,31.73
2022-08-17T20:24:21.994Z,26.52
2022-08-17T20:26:58.574Z,24.63
2022-08-17T20:29:40.267Z,24.98
2022-08-17T20:32:26.805Z,28.02
2022-08-17T20:35:20.961Z,27.58
2022-08-17T20:37:59.884Z,23.17
2022-08-17T20:40:32.675Z,24.80
2022-08-17T20:43:40.083Z,22.10
2022-08-17T20:46:20.797Z,27.80
2022-08-17T20:48:53.869Z,25.40
2022-08-17T20:51:32.457Z,26.83
2022-08-17T20:54:24.398Z,28.73
2022-08-17T20:56:59.176Z,28.67
2022-08-17T21:00:14.762Z,30.15
2022-08-17T21:02:47.565Z,28.65
2022-08-17T21:05:40.468Z,24.92
2022-08-17T21:08:16.027Z,26.40
2022-08-17T21:10:47.735Z,24.45
2022-08-17T21:13:56.940Z,31.13
2022-08-17T21:16:41.386Z,25.23
2022-08-17T21:19:31.386Z,29.83
2022-08-17T21:22:15.270Z,24.67
2022-08-17T21:24:55.586Z,27.45
2022-08-17T21:27:37.811Z,29.60
2022-08-17T21:30:44.489Z,29.65
2022-08-17T21:33:28.608Z,24.85
2022-08-17T21:36:23.833Z,26.80
2022-08-17T21:39:03.870Z,25.88
2022-08-17T21:41:35.386Z,24.08
2022-08-17T21:44:12.249Z,28.95
2022-08-17T21:46:45.834Z,25.95
2022-08-17T21:49:18.301Z,29.45
2022-08-17T21:51:55.002Z,22.90
2022-08-17T21:54:32.034Z,24.13
2022-08-17T21:57:03.548Z,26.98
2022-08-17T21:59:36.729Z,25.00
2022-08-17T22:02:08.694Z,24.17
2022-08-17T22:04:40.314Z,26.38
2022-08-17T22:07:14.415Z,24.50
2022-08-17T22:09:47.404Z,26.65
2022-08-17T22:12:19.705Z,24.15
2022-08-17T22:15:00.413Z,25.50
2022-08-17T22:17:35.452Z,23.13
2022-08-17T22:20:10.547Z,27.50
2022-08-17T22:23:21.023Z,26.52
2022-08-17T22:26:01.517Z,26.92
2022-08-17T22:28:45.600Z,27.35
2022-08-17T22:31:17.354Z,23.73
2022-08-17T22:33:49.493Z,30.73
2022-08-17T22:36:29.059Z,25.38
2022-08-17T22:39:01.937Z,26.38
2022-08-17T22:41:44.090Z,24.70
2022-08-17T22:44:25.492Z,24.33
2022-08-17T22:47:06.725Z,26.48
2022-08-17T22:49:53.546Z,25.48
2022-08-17T22:52:32.905Z,24.33
2022-08-17T22:55:26.594Z,26.10
2022-08-17T22:58:13.361Z,26.15
2022-08-17T23:00:45.191Z,23.73
2022-08-17T23:03:19.082Z,23.20
2022-08-17T23:06:03.428Z,21.02
2022-08-17T23:08:35.757Z,27.98
2022-08-17T23:11:08.003Z,26.23
2022-08-17T23:13:38.742Z,23.08
2022-08-17T23:16:08.152Z,25.55
2022-08-17T23:18:37.855Z,30.60
2022-08-17T23:23:37.643Z,24.63
2022-08-17T23:26:10.446Z,25.00
2022-08-17T23:28:41.107Z,22.63
2022-08-17T23:31:10.843Z,26.65
2022-08-17T23:36:15.379Z,27.20
2022-08-17T23:38:46.604Z,23.00
2022-08-17T23:41:19.864Z,22.58
2022-08-17T23:43:52.248Z,26.30
2022-08-17T23:46:22.496Z,26.15
2022-08-17T23:48:54.241Z,27.83
2022-08-17T23:51:28.604Z,28.75
2022-08-17T23:54:12.634Z,26.25
2022-08-17T23:56:46.617Z,26.50
2022-08-17T23:59:17.571Z,27.05
